createdAt,value
2019-04-26T00:02:37.341Z,5.93
2019-04-26T00:05:07.822Z,6.33
2019-04-26T00:07:38.279Z,6.13
2019-04-26T00:10:10.516Z,5.47
2019-04-26T00:12:50.362Z,6.57
2019-04-26T00:15:36.903Z,6.47
2019-04-26T00:18:06.533Z,5.80
2019-04-26T00:20:35.987Z,6.13
2019-04-26T00:23:05.442Z,5.50
2019-04-26T00:25:34.917Z,5.70
2019-04-26T00:28:04.653Z,6.20
2019-04-26T00:30:34.114Z,6.17
2019-04-26T00:33:03.562Z,6.37
2019-04-26T00:35:33.035Z,5.90
2019-04-26T00:38:02.473Z,6.00
2019-04-26T00:40:31.942Z,5.77
2019-04-26T00:43:02.965Z,5.60
2019-04-26T00:45:34.196Z,5.57
2019-04-26T00:48:04.508Z,5.53
2019-04-26T00:50:34.434Z,5.33
2019-04-26T00:53:04.528Z,6.77
2019-04-26T00:55:35.874Z,6.33
2019-04-26T00:58:06.089Z,5.77
2019-04-26T01:00:35.666Z,6.57
2019-04-26T01:03:05.113Z,6.13
2019-04-26T01:05:37.284Z,6.70
2019-04-26T01:08:06.971Z,6.10
2019-04-26T01:10:36.601Z,5.87
2019-04-26T01:13:06.234Z,6.30
2019-04-26T01:15:36.075Z,5.70
2019-04-26T01:18:05.905Z,5.90
2019-04-26T01:20:36.800Z,6.63
2019-04-26T01:23:07.481Z,6.03
2019-04-26T01:25:46.533Z,6.47
2019-04-26T01:28:19.777Z,6.50
2019-04-26T01:30:50.513Z,6.83
2019-04-26T01:33:20.143Z,7.03
2019-04-26T01:35:51.317Z,6.87
2019-04-26T01:38:21.792Z,6.20
2019-04-26T01:40:53.021Z,7.10
2019-04-26T01:43:31.325Z,6.83
2019-04-26T01:46:04.279Z,6.60
2019-04-26T01:48:48.392Z,6.37
2019-04-26T01:51:37.361Z,7.00
2019-04-26T01:54:06.976Z,7.10
2019-04-26T01:56:37.344Z,7.10
2019-04-26T01:59:08.769Z,7.17
2019-04-26T02:01:46.212Z,7.40
2019-04-26T02:04:15.662Z,7.13
2019-04-26T02:06:45.192Z,7.27
2019-04-26T02:09:15.172Z,7.40
2019-04-26T02:11:44.626Z,7.30
2019-04-26T02:14:14.077Z,7.30
2019-04-26T02:16:43.864Z,6.20
2019-04-26T02:19:13.257Z,6.73
2019-04-26T02:21:44.718Z,7.20
2019-04-26T02:24:28.213Z,7.30
2019-04-26T02:26:57.844Z,6.70
2019-04-26T02:29:28.594Z,7.03
2019-04-26T02:32:00.327Z,7.50
2019-04-26T02:34:33.162Z,7.50
2019-04-26T02:37:04.124Z,6.83
2019-04-26T02:39:39.429Z,7.37
2019-04-26T02:42:28.802Z,7.60
2019-04-26T02:45:03.108Z,7.40
2019-04-26T02:47:47.010Z,7.10
2019-04-26T02:50:22.596Z,7.83
2019-04-26T02:52:58.533Z,7.53
2019-04-26T02:56:04.710Z,7.33
2019-04-26T02:58:48.907Z,7.60
2019-04-26T03:01:18.548Z,8.03
2019-04-26T03:03:48.067Z,8.03
2019-04-26T03:06:18.568Z,7.57
2019-04-26T03:08:48.096Z,6.77
2019-04-26T03:11:19.351Z,7.20
2019-04-26T03:13:50.829Z,7.70
2019-04-26T03:16:42.859Z,8.03
2019-04-26T03:19:23.279Z,7.80
2019-04-26T03:22:07.478Z,7.70
2019-04-26T03:25:00.472Z,8.00
2019-04-26T03:27:38.060Z,8.50
2019-04-26T03:30:23.744Z,8.00
2019-04-26T03:33:14.943Z,8.63
2019-04-26T03:36:27.131Z,8.80
2019-04-26T03:39:25.493Z,8.87
2019-04-26T03:42:28.346Z,8.60
2019-04-26T03:45:20.367Z,7.93
2019-04-26T03:48:08.244Z,7.77
2019-04-26T03:51:05.085Z,8.63
2019-04-26T03:53:49.990Z,7.77
2019-04-26T03:56:27.458Z,8.63
2019-04-26T03:59:04.610Z,7.90
2019-04-26T04:01:39.581Z,7.53
2019-04-26T04:04:27.708Z,7.33
2019-04-26T04:07:04.813Z,7.77
2019-04-26T04:09:30.393Z,7.87
2019-04-26T04:12:12.480Z,7.90
2019-04-26T04:14:51.654Z,7.87
2019-04-26T04:17:47.468Z,9.03
2019-04-26T04:20:28.361Z,8.53
2019-04-26T04:23:34.263Z,8.30
2019-04-26T04:26:05.340Z,8.40
2019-04-26T04:28:42.521Z,8.90
2019-04-26T04:31:26.924Z,8.57
2019-04-26T04:34:05.269Z,9.03
2019-04-26T04:36:37.914Z,8.83
2019-04-26T04:39:12.923Z,10.20
2019-04-26T04:42:17.772Z,10.00
2019-04-26T04:45:07.061Z,9.00
2019-04-26T04:47:46.121Z,9.47
2019-04-26T04:50:27.616Z,9.13
2019-04-26T04:53:14.899Z,9.33
2019-04-26T04:55:50.408Z,8.20
2019-04-26T04:58:25.692Z,9.17
2019-04-26T05:01:05.747Z,9.30
2019-04-26T05:04:04.148Z,8.53
2019-04-26T05:06:53.560Z,9.77
2019-04-26T05:09:26.213Z,9.50
2019-04-26T05:12:10.685Z,8.70
2019-04-26T05:15:06.369Z,8.63
2019-04-26T05:17:54.154Z,7.20
2019-04-26T05:20:46.986Z,8.13
2019-04-26T05:23:31.644Z,8.00
2019-04-26T05:26:29.069Z,6.90
2019-04-26T05:29:46.490Z,6.60
2019-04-26T05:32:52.643Z,6.93
2019-04-26T05:35:42.101Z,6.60
2019-04-26T05:38:40.589Z,6.90
2019-04-26T05:41:32.724Z,7.17
2019-04-26T05:44:26.931Z,6.53
2019-04-26T05:47:23.953Z,6.43
2019-04-26T05:50:40.854Z,6.90
2019-04-26T05:54:04.870Z,6.70
2019-04-26T05:57:00.348Z,6.83
2019-04-26T05:59:55.262Z,6.70
2019-04-26T06:03:02.517Z,7.30
2019-04-26T06:05:52.360Z,6.50
2019-04-26T06:08:31.753Z,6.53
2019-04-26T06:11:05.528Z,6.85
2019-04-26T06:13:55.725Z,5.75
2019-04-26T06:16:42.816Z,6.22
2019-04-26T06:19:31.316Z,5.75
2019-04-26T06:22:03.944Z,5.45
2019-04-26T06:25:00.425Z,5.87
2019-04-26T06:27:37.293Z,4.83
2019-04-26T06:30:13.025Z,5.00
2019-04-26T06:33:03.168Z,5.78
2019-04-26T06:35:29.204Z,5.67
2019-04-26T06:41:28.015Z,6.50
2019-04-26T06:44:02.779Z,6.45
2019-04-26T06:46:52.112Z,5.80
2019-04-26T06:49:42.686Z,5.67
2019-04-26T06:52:17.230Z,5.78
2019-04-26T06:54:56.371Z,5.37
2019-04-26T06:57:36.841Z,6.15
2019-04-26T07:00:18.690Z,5.53
2019-04-26T07:02:53.838Z,5.03
2019-04-26T07:05:32.513Z,5.60
2019-04-26T07:08:23.064Z,5.10
2019-04-26T07:11:29.341Z,5.08
2019-04-26T07:14:29.063Z,4.80
2019-04-26T07:17:04.661Z,4.28
2019-04-26T07:20:23.515Z,4.30
2019-04-26T07:23:30.613Z,4.28
2019-04-26T07:26:13.777Z,4.47
2019-04-26T07:29:13.798Z,4.60
2019-04-26T07:32:02.289Z,4.60
2019-04-26T07:35:04.626Z,3.58
2019-04-26T07:37:43.256Z,3.80
2019-04-26T07:40:43.304Z,3.85
2019-04-26T07:43:41.637Z,3.85
2019-04-26T07:46:47.641Z,3.70
2019-04-26T07:49:31.992Z,3.77
2019-04-26T07:52:36.630Z,3.60
2019-04-26T07:55:30.538Z,3.80
2019-04-26T07:58:22.283Z,4.20
2019-04-26T08:01:17.123Z,4.05
2019-04-26T08:04:07.197Z,8.65
2019-04-26T08:06:44.104Z,4.10
2019-04-26T08:09:26.288Z,3.22
2019-04-26T08:11:55.220Z,4.10
2019-04-26T08:14:44.529Z,4.12
2019-04-26T08:17:38.266Z,4.20
2019-04-26T08:20:28.189Z,3.60
2019-04-26T08:23:02.745Z,3.52
2019-04-26T08:25:34.959Z,3.05
2019-04-26T08:28:07.359Z,3.17
2019-04-26T08:30:44.774Z,3.15
2019-04-26T08:33:14.684Z,2.98
2019-04-26T08:35:48.974Z,3.20
2019-04-26T08:38:22.331Z,3.35
2019-04-26T08:40:49.304Z,3.02
2019-04-26T08:43:36.384Z,2.67
2019-04-26T08:46:17.903Z,2.70
2019-04-26T08:49:02.127Z,2.47
2019-04-26T08:51:34.730Z,2.80
2019-04-26T08:54:06.580Z,2.80
2019-04-26T08:56:45.016Z,2.90
2019-04-26T08:59:20.650Z,2.87
2019-04-26T09:01:52.516Z,3.20
2019-04-26T09:04:24.475Z,2.15
2019-04-26T09:07:09.564Z,2.50
2019-04-26T09:09:40.593Z,2.72
2019-04-26T09:12:22.840Z,2.58
2019-04-26T09:14:50.142Z,2.35
2019-04-26T09:17:19.583Z,2.60
2019-04-26T09:19:49.475Z,2.65
2019-04-26T09:22:22.484Z,2.87
2019-04-26T09:24:55.139Z,2.50
2019-04-26T09:27:30.272Z,2.65
2019-04-26T09:30:05.083Z,2.98
2019-04-26T09:32:36.836Z,2.70
2019-04-26T09:35:07.335Z,2.90
2019-04-26T09:37:37.121Z,2.77
2019-04-26T09:40:10.530Z,2.95
2019-04-26T09:45:57.277Z,2.72
2019-04-26T09:48:28.368Z,2.83
2019-04-26T09:51:00.029Z,2.75
2019-04-26T09:53:29.572Z,2.72
2019-04-26T09:55:59.039Z,2.90
2019-04-26T09:58:30.808Z,2.92
2019-04-26T10:00:59.635Z,2.55
2019-04-26T10:03:29.353Z,2.65
2019-04-26T10:05:58.826Z,2.70
2019-04-26T10:08:28.278Z,3.05
2019-04-26T10:10:57.732Z,3.37
2019-04-26T10:13:29.074Z,3.17
2019-04-26T10:16:16.116Z,2.60
2019-04-26T10:18:47.200Z,2.87
2019-04-26T10:21:16.688Z,2.90
2019-04-26T10:23:46.172Z,2.67
2019-04-26T10:26:15.637Z,2.80
2019-04-26T10:28:46.753Z,2.52
2019-04-26T10:31:17.237Z,2.98
2019-04-26T10:33:46.907Z,3.20
2019-04-26T10:36:16.369Z,2.72
2019-04-26T10:38:45.821Z,2.90
2019-04-26T10:41:15.307Z,2.55
2019-04-26T10:43:45.097Z,2.70
2019-04-26T10:46:14.558Z,2.65
2019-04-26T10:48:45.464Z,2.65
2019-04-26T10:51:16.810Z,2.75
2019-04-26T10:54:01.791Z,2.47
2019-04-26T10:56:38.694Z,2.70
2019-04-26T10:59:12.697Z,2.60
2019-04-26T11:01:42.528Z,3.00
2019-04-26T11:04:12.259Z,2.80
2019-04-26T11:06:41.749Z,2.92
2019-04-26T11:09:11.251Z,2.77
2019-04-26T11:11:41.083Z,3.05
2019-04-26T11:14:10.873Z,2.80
2019-04-26T11:16:41.138Z,3.00
2019-04-26T11:19:11.824Z,2.75
2019-04-26T11:21:41.296Z,2.60
2019-04-26T11:24:11.047Z,2.60
2019-04-26T11:26:40.579Z,2.58
2019-04-26T11:29:10.047Z,2.35
2019-04-26T11:31:39.499Z,3.17
2019-04-26T11:34:09.006Z,3.10
2019-04-26T11:36:41.774Z,2.60
2019-04-26T11:39:11.406Z,2.67
2019-04-26T11:41:41.147Z,2.87
2019-04-26T11:44:10.590Z,2.58
2019-04-26T11:46:45.035Z,2.60
2019-04-26T11:49:11.224Z,2.65
2019-04-26T11:51:40.655Z,2.60
2019-04-26T11:54:10.117Z,2.80
2019-04-26T11:56:39.636Z,3.00
2019-04-26T11:59:09.112Z,2.92
2019-04-26T12:01:40.475Z,2.58
2019-04-26T12:04:17.746Z,2.55
2019-04-26T12:06:49.049Z,3.10
2019-04-26T12:09:20.713Z,2.80
2019-04-26T12:12:03.729Z,3.27
2019-04-26T12:14:21.312Z,2.90
2019-04-26T12:16:54.977Z,2.50
2019-04-26T12:19:22.168Z,2.77
2019-04-26T12:21:51.612Z,3.08
2019-04-26T12:24:21.088Z,3.17
2019-04-26T12:26:51.954Z,2.92
2019-04-26T12:29:21.652Z,2.85
2019-04-26T12:31:51.092Z,2.50
2019-04-26T12:34:20.635Z,2.80
2019-04-26T12:36:50.455Z,3.40
2019-04-26T12:39:20.148Z,3.22
2019-04-26T12:41:49.594Z,3.40
2019-04-26T12:44:19.125Z,3.22
2019-04-26T12:47:03.539Z,3.20
2019-04-26T12:49:35.440Z,3.60
2019-04-26T12:52:04.487Z,2.62
2019-04-26T12:54:34.197Z,3.02
2019-04-26T12:57:05.838Z,2.90
2019-04-26T12:59:44.116Z,4.05
2019-04-26T13:02:06.267Z,3.45
2019-04-26T13:04:36.725Z,3.60
2019-04-26T13:07:23.753Z,3.80
2019-04-26T13:10:10.552Z,3.40
2019-04-26T13:12:59.890Z,3.37
2019-04-26T13:15:53.761Z,3.40
2019-04-26T13:18:23.226Z,3.95
2019-04-26T13:20:53.940Z,4.12
2019-04-26T13:23:25.403Z,4.15
2019-04-26T13:25:55.496Z,4.12
2019-04-26T13:28:25.987Z,3.58
2019-04-26T13:30:55.579Z,3.67
2019-04-26T13:33:27.379Z,4.17
2019-04-26T13:36:02.521Z,3.92
2019-04-26T13:38:27.600Z,4.03
2019-04-26T13:40:59.809Z,3.27
2019-04-26T13:43:28.749Z,3.87
2019-04-26T13:46:15.128Z,3.95
2019-04-26T13:48:51.864Z,3.85
2019-04-26T13:51:22.953Z,4.05
2019-04-26T13:53:54.341Z,4.00
2019-04-26T13:56:23.732Z,3.83
2019-04-26T13:58:54.340Z,3.70
2019-04-26T14:01:24.683Z,3.47
2019-04-26T14:03:54.502Z,3.00
2019-04-26T14:06:23.972Z,2.62
2019-04-26T14:08:53.848Z,3.00
2019-04-26T14:11:28.057Z,3.50
2019-04-26T14:13:59.969Z,2.35
2019-04-26T14:16:27.577Z,2.58
2019-04-26T14:18:57.122Z,2.45
2019-04-26T14:21:29.307Z,2.35
2019-04-26T14:24:19.766Z,2.80
2019-04-26T14:26:48.657Z,2.67
2019-04-26T14:29:18.554Z,2.65
2019-04-26T14:31:51.396Z,2.83
2019-04-26T14:34:19.498Z,3.02
2019-04-26T14:36:48.961Z,3.62
2019-04-26T14:39:20.933Z,3.80
2019-04-26T14:41:52.840Z,3.40
2019-04-26T14:44:20.719Z,2.95
2019-04-26T14:46:53.295Z,3.15
2019-04-26T14:49:23.424Z,2.67
2019-04-26T14:51:55.967Z,2.67
2019-04-26T14:54:23.658Z,3.42
2019-04-26T14:56:53.392Z,3.08
2019-04-26T14:59:24.801Z,2.60
2019-04-26T15:01:55.917Z,3.00
2019-04-26T15:04:33.061Z,4.33
2019-04-26T15:07:05.482Z,3.02
2019-04-26T15:09:36.328Z,3.58
2019-04-26T15:12:07.631Z,3.27
2019-04-26T15:14:36.250Z,3.40
2019-04-26T15:17:05.885Z,3.30
2019-04-26T15:19:35.395Z,2.80
2019-04-26T15:22:10.316Z,3.00
2019-04-26T15:24:38.544Z,3.00
2019-04-26T15:27:07.200Z,2.75
2019-04-26T15:29:36.645Z,2.70
2019-04-26T15:32:06.108Z,3.40
2019-04-26T15:34:35.631Z,3.10
2019-04-26T15:37:05.289Z,3.77
2019-04-26T15:39:36.376Z,3.65
2019-04-26T15:42:29.077Z,3.33
2019-04-26T15:45:01.775Z,3.08
2019-04-26T15:47:43.936Z,3.87
2019-04-26T15:50:15.089Z,3.55
2019-04-26T15:52:44.518Z,3.55
2019-04-26T15:55:13.966Z,3.80
2019-04-26T15:57:43.599Z,3.77
2019-04-26T16:00:13.046Z,4.25
2019-04-26T16:02:42.711Z,4.22
2019-04-26T16:05:12.480Z,3.80
2019-04-26T16:07:42.970Z,3.83
2019-04-26T16:10:12.617Z,3.87
2019-04-26T16:12:42.346Z,3.65
2019-04-26T16:15:14.718Z,3.42
2019-04-26T16:17:43.277Z,4.55
2019-04-26T16:20:13.647Z,4.22
2019-04-26T16:22:43.249Z,4.65
2019-04-26T16:25:14.579Z,5.05
2019-04-26T16:27:44.386Z,4.95
2019-04-26T16:30:23.126Z,5.25
2019-04-26T16:32:58.991Z,5.65
2019-04-26T16:35:28.466Z,6.15
2019-04-26T16:38:00.108Z,5.03
2019-04-26T16:40:29.674Z,5.30
2019-04-26T16:42:59.785Z,6.17
2019-04-26T16:45:29.384Z,6.03
2019-04-26T16:47:58.847Z,6.60
2019-04-26T16:50:31.602Z,5.70
2019-04-26T16:52:59.446Z,6.87
2019-04-26T16:55:28.891Z,6.33
2019-04-26T16:57:59.342Z,6.43
2019-04-26T17:00:48.095Z,7.40
2019-04-26T17:03:03.958Z,7.10
2019-04-26T17:05:45.515Z,7.30
2019-04-26T17:08:05.159Z,7.62
2019-04-26T17:10:34.191Z,9.03
2019-04-26T17:13:04.477Z,9.43
2019-04-26T17:15:34.503Z,11.50
2019-04-26T17:18:04.611Z,11.50
2019-04-26T17:20:34.236Z,12.33
2019-04-26T17:23:08.273Z,12.67
2019-04-26T17:25:59.089Z,13.67
2019-04-26T17:28:27.082Z,13.50
2019-04-26T17:30:57.071Z,14.33
2019-04-26T17:33:28.332Z,14.90
2019-04-26T17:35:57.739Z,14.97
2019-04-26T17:38:27.187Z,15.67
2019-04-26T17:40:57.006Z,15.10
2019-04-26T17:43:26.474Z,15.67
2019-04-26T17:45:56.834Z,15.10
2019-04-26T17:48:26.306Z,14.83
2019-04-26T17:50:55.773Z,15.60
2019-04-26T17:53:30.897Z,16.40
2019-04-26T17:55:56.866Z,17.90
2019-04-26T17:58:30.728Z,19.27
2019-04-26T18:01:01.047Z,21.00
2019-04-26T18:03:29.272Z,22.33
2019-04-26T18:06:00.848Z,25.57
2019-04-26T18:08:37.103Z,28.40
2019-04-26T18:11:01.088Z,25.33
2019-04-26T18:13:32.097Z,26.87
2019-04-26T18:16:03.482Z,29.80
2019-04-26T18:18:53.605Z,33.57
2019-04-26T18:21:37.815Z,32.63
2019-04-26T18:24:07.277Z,36.07
2019-04-26T18:26:36.734Z,39.50
2019-04-26T18:29:06.266Z,40.47
2019-04-26T18:31:35.724Z,42.70
2019-04-26T18:34:05.529Z,42.97
2019-04-26T18:36:34.963Z,46.77
2019-04-26T18:39:06.724Z,44.77
2019-04-26T18:41:36.199Z,42.83
2019-04-26T18:44:05.837Z,42.70
2019-04-26T18:46:46.885Z,44.00
2019-04-26T18:49:18.210Z,43.27
2019-04-26T18:51:48.192Z,44.47
2019-04-26T18:54:18.430Z,43.83
2019-04-26T18:56:53.355Z,41.67
2019-04-26T18:59:24.005Z,42.33
2019-04-26T19:01:54.698Z,43.63
2019-04-26T19:04:24.868Z,39.97
2019-04-26T19:06:54.368Z,39.80
2019-04-26T19:09:25.261Z,35.43
2019-04-26T19:11:56.225Z,35.77
2019-04-26T19:14:27.520Z,34.43
2019-04-26T19:17:02.041Z,31.57
2019-04-26T19:19:49.346Z,30.20
2019-04-26T19:22:20.302Z,31.07
2019-04-26T19:24:54.206Z,30.90
2019-04-26T19:27:26.573Z,30.93
2019-04-26T19:29:52.689Z,29.27
2019-04-26T19:32:23.588Z,28.80
2019-04-26T19:34:53.185Z,27.80
2019-04-26T19:37:23.355Z,30.67
2019-04-26T19:39:52.931Z,30.27
2019-04-26T19:42:22.393Z,31.20
2019-04-26T19:45:09.552Z,32.10
2019-04-26T19:47:24.694Z,30.07
2019-04-26T19:50:11.777Z,32.00
2019-04-26T19:53:01.607Z,31.53
2019-04-26T19:55:47.388Z,27.33
2019-04-26T19:58:20.143Z,26.73
2019-04-26T20:00:46.851Z,22.37
2019-04-26T20:03:16.844Z,21.97
2019-04-26T20:05:46.589Z,19.93
2019-04-26T20:08:16.063Z,18.77
2019-04-26T20:10:45.900Z,19.07
2019-04-26T20:13:16.641Z,18.43
2019-04-26T20:15:46.551Z,21.13
2019-04-26T20:18:17.553Z,20.87
2019-04-26T20:20:47.545Z,21.53
2019-04-26T20:23:19.335Z,19.90
2019-04-26T20:25:48.137Z,20.53
2019-04-26T20:28:17.617Z,20.50
2019-04-26T20:30:48.724Z,18.10
2019-04-26T20:33:18.247Z,18.20
2019-04-26T20:35:47.694Z,18.03
2019-04-26T20:38:17.333Z,17.80
2019-04-26T20:40:47.479Z,17.23
2019-04-26T20:43:24.410Z,17.20
2019-04-26T20:46:07.825Z,18.10
2019-04-26T20:48:21.364Z,17.67
2019-04-26T20:50:52.017Z,17.53
2019-04-26T20:53:21.870Z,18.77
2019-04-26T20:55:52.828Z,18.83
2019-04-26T20:58:22.476Z,17.53
2019-04-26T21:00:54.391Z,17.97
2019-04-26T21:03:27.536Z,18.17
2019-04-26T21:05:58.992Z,18.03
2019-04-26T21:08:26.868Z,16.67
2019-04-26T21:11:00.123Z,17.50
2019-04-26T21:13:30.559Z,17.90
2019-04-26T21:16:03.677Z,17.33
2019-04-26T21:18:33.561Z,18.20
2019-04-26T21:21:01.583Z,18.07
2019-04-26T21:23:33.625Z,17.43
2019-04-26T21:26:07.180Z,18.47
2019-04-26T21:28:56.870Z,19.60
2019-04-26T21:31:47.188Z,19.33
2019-04-26T21:37:07.338Z,18.03
2019-04-26T21:39:44.192Z,18.97
2019-04-26T21:42:12.784Z,16.63
2019-04-26T21:44:44.621Z,16.40
2019-04-26T21:47:13.781Z,16.77
2019-04-26T21:49:43.255Z,15.97
2019-04-26T21:52:13.644Z,15.83
2019-04-26T21:54:43.292Z,16.13
2019-04-26T21:57:12.732Z,17.63
2019-04-26T21:59:44.180Z,16.03
2019-04-26T22:02:14.071Z,17.57
2019-04-26T22:04:43.682Z,16.97
2019-04-26T22:07:14.573Z,17.40
2019-04-26T22:09:48.530Z,18.60
2019-04-26T22:12:18.063Z,18.83
2019-04-26T22:14:50.772Z,19.47
2019-04-26T22:17:24.077Z,18.57
2019-04-26T22:20:12.455Z,19.60
2019-04-26T22:22:48.078Z,19.77
2019-04-26T22:25:19.441Z,19.17
2019-04-26T22:27:48.900Z,19.97
2019-04-26T22:30:22.727Z,19.73
2019-04-26T22:32:55.070Z,22.10
2019-04-26T22:35:22.653Z,21.67
2019-04-26T22:37:53.636Z,20.83
2019-04-26T22:40:23.425Z,22.33
2019-04-26T22:42:54.515Z,22.57
2019-04-26T22:45:28.477Z,22.57
2019-04-26T22:48:19.421Z,23.33
2019-04-26T22:50:43.657Z,24.07
2019-04-26T22:53:13.278Z,22.07
2019-04-26T22:55:43.617Z,22.53
2019-04-26T22:58:13.523Z,21.40
2019-04-26T23:00:43.688Z,18.60
2019-04-26T23:03:13.740Z,18.30
2019-04-26T23:05:43.695Z,18.17
2019-04-26T23:08:13.706Z,17.70
2019-04-26T23:10:44.786Z,17.90
2019-04-26T23:13:23.172Z,18.47
2019-04-26T23:15:54.327Z,18.37
2019-04-26T23:18:44.532Z,19.23
2019-04-26T23:21:15.111Z,19.37
2019-04-26T23:23:44.590Z,19.20
2019-04-26T23:26:14.545Z,18.70
2019-04-26T23:28:43.986Z,18.43
2019-04-26T23:31:13.878Z,18.77
2019-04-26T23:33:43.333Z,18.63
2019-04-26T23:36:13.652Z,17.30
2019-04-26T23:38:43.910Z,17.33
2019-04-26T23:41:14.227Z,17.73
2019-04-26T23:43:43.811Z,16.23
2019-04-26T23:46:14.650Z,15.67
2019-04-26T23:48:48.645Z,14.80
2019-04-26T23:51:15.975Z,15.53
2019-04-26T23:53:45.421Z,14.53
2019-04-26T23:56:21.642Z,16.20
2019-04-26T23:58:46.369Z,15.10
